createdAt,value
2022-08-12T00:33:59.052Z,20.47
2022-08-12T00:36:50.094Z,20.62
2022-08-12T00:39:39.744Z,20.60
2022-08-12T00:46:09.260Z,20.50
2022-08-12T00:48:39.688Z,20.43
2022-08-12T00:51:10.488Z,20.34
2022-08-12T00:53:39.995Z,20.50
2022-08-12T00:56:10.959Z,20.43
2022-08-12T00:58:56.865Z,20.42
2022-08-12T01:01:27.154Z,20.36
2022-08-12T01:04:18.328Z,20.20
2022-08-12T01:23:42.349Z,19.95
2022-08-12T01:26:14.002Z,20.53
2022-08-12T01:28:47.004Z,20.36
2022-08-12T01:31:49.155Z,20.36
2022-08-12T01:35:05.808Z,20.22
2022-08-12T01:41:53.766Z,20.33
2022-08-12T01:44:25.780Z,20.21
2022-08-12T01:51:05.579Z,20.11
2022-08-12T01:53:52.956Z,20.02
2022-08-12T01:57:13.690Z,20.06
2022-08-12T01:59:52.119Z,20.04
2022-08-12T02:02:47.009Z,20.10
2022-08-12T02:05:44.777Z,20.11
2022-08-12T03:01:22.921Z,20.13
2022-08-12T07:20:55.007Z,24.06
2022-08-12T08:16:21.266Z,25.13
2022-08-12T08:22:58.010Z,24.92
2022-08-12T09:52:05.416Z,27.66
2022-08-12T09:54:50.307Z,27.81
2022-08-12T09:58:44.902Z,27.73
2022-08-12T10:34:38.250Z,28.07
2022-08-12T10:37:22.598Z,28.17
2022-08-12T10:39:59.234Z,28.20
2022-08-12T10:43:00.308Z,28.04
2022-08-12T10:45:30.556Z,28.56
2022-08-12T10:48:07.610Z,28.24
2022-08-12T10:51:01.044Z,28.26
2022-08-12T10:53:00.486Z,29.18
2022-08-12T10:55:32.200Z,29.38
2022-08-12T10:58:27.457Z,29.35
2022-08-12T11:00:54.899Z,29.66
2022-08-12T11:04:28.594Z,29.38
2022-08-12T11:07:02.815Z,28.99
2022-08-12T11:08:38.753Z,28.55
2022-08-12T11:14:00.003Z,28.39
2022-08-12T11:17:34.242Z,28.23
2022-08-12T12:26:06.499Z,30.02
2022-08-12T12:29:07.008Z,29.24
2022-08-12T12:30:54.631Z,29.30
2022-08-12T12:37:08.262Z,29.81
2022-08-12T12:39:55.102Z,29.66
2022-08-12T12:42:44.037Z,30.21
2022-08-12T12:44:50.834Z,30.39
2022-08-12T12:47:28.939Z,30.08
2022-08-12T12:49:58.227Z,30.13
2022-08-12T12:52:31.823Z,29.94
2022-08-12T12:58:31.245Z,29.93
2022-08-12T13:01:04.702Z,29.54
2022-08-12T13:03:48.774Z,29.27
2022-08-12T13:12:51.750Z,29.35
2022-08-12T13:22:20.717Z,29.10
2022-08-12T13:25:36.129Z,28.85
2022-08-12T13:28:05.853Z,28.44
2022-08-12T13:30:40.714Z,27.87
2022-08-12T13:57:46.851Z,27.16
2022-08-12T14:03:51.341Z,27.13
2022-08-12T14:06:30.242Z,27.00
2022-08-12T14:09:15.352Z,27.11
2022-08-12T14:12:01.237Z,27.16
2022-08-12T14:14:35.641Z,27.05
2022-08-12T14:17:05.557Z,27.01
2022-08-12T14:19:35.274Z,27.12
2022-08-12T14:22:05.457Z,26.97
2022-08-12T14:24:40.402Z,26.83
2022-08-12T14:27:10.401Z,26.88
2022-08-12T14:30:04.445Z,26.88
2022-08-12T15:14:18.960Z,30.14
2022-08-12T15:16:50.002Z,29.26
2022-08-12T15:20:30.805Z,28.63
2022-08-12T15:22:37.267Z,29.74
2022-08-12T15:24:55.571Z,30.36
2022-08-12T15:28:11.062Z,30.68
2022-08-12T15:30:16.027Z,30.86
2022-08-12T15:36:55.715Z,31.56
2022-08-12T15:39:34.459Z,31.45
2022-08-12T15:42:08.595Z,30.66
2022-08-12T15:44:42.903Z,29.66
2022-08-12T15:48:16.278Z,29.01
2022-08-12T15:52:27.290Z,28.97
2022-08-12T15:53:41.054Z,29.15
2022-08-12T15:56:15.337Z,29.18
2022-08-12T15:58:48.778Z,29.00
2022-08-12T16:01:22.455Z,28.97
2022-08-12T16:03:56.648Z,29.03
2022-08-12T16:06:50.997Z,28.76
2022-08-12T16:08:58.005Z,28.39
2022-08-12T16:11:32.853Z,27.96
2022-08-12T16:14:03.400Z,27.66
2022-08-12T16:16:33.914Z,27.43
2022-08-12T16:34:54.698Z,26.07
2022-08-12T16:37:21.639Z,26.01
2022-08-12T16:55:13.023Z,25.07
2022-08-12T16:56:54.562Z,25.30
2022-08-12T17:22:46.756Z,24.08
2022-08-12T17:25:23.446Z,23.84
2022-08-12T17:32:00.862Z,23.65
2022-08-12T17:34:17.208Z,23.55
2022-08-12T17:36:43.370Z,23.37
2022-08-12T17:39:13.092Z,23.24
2022-08-12T17:41:57.212Z,23.22
2022-08-12T17:44:20.925Z,23.10
2022-08-12T17:46:54.171Z,22.96
2022-08-12T17:50:01.920Z,22.96
2022-08-12T17:52:02.716Z,22.96
2022-08-12T19:00:56.596Z,22.11
2022-08-12T19:03:39.106Z,22.13
2022-08-12T19:06:02.525Z,22.01
2022-08-12T19:08:33.355Z,22.07
2022-08-12T19:11:27.080Z,22.00
2022-08-12T19:14:17.698Z,21.98
2022-08-12T19:16:52.809Z,21.92
2022-08-12T19:19:21.838Z,21.93
2022-08-12T19:21:57.027Z,21.99
2022-08-12T19:37:08.639Z,21.93
2022-08-12T19:42:31.509Z,21.92
2022-08-12T19:45:05.650Z,21.91
2022-08-12T19:47:38.548Z,21.93
2022-08-12T19:50:20.012Z,21.89
2022-08-12T19:52:51.051Z,21.79
2022-08-12T19:55:21.903Z,21.87
2022-08-12T19:58:01.358Z,21.85
2022-08-12T20:00:26.564Z,21.79
2022-08-12T20:02:57.016Z,21.67
2022-08-12T20:06:04.596Z,21.50
2022-08-12T20:08:01.074Z,21.49
2022-08-12T20:10:36.350Z,21.38
2022-08-12T20:16:01.148Z,21.47
2022-08-12T20:18:53.596Z,21.36
2022-08-12T20:21:14.863Z,21.34
2022-08-12T20:23:59.643Z,21.32
2022-08-12T20:44:43.434Z,21.05
2022-08-12T20:47:18.658Z,21.10
2022-08-12T20:53:14.277Z,21.17
2022-08-12T21:06:33.572Z,20.85
2022-08-12T21:09:06.928Z,20.98
2022-08-12T21:11:38.008Z,21.06
2022-08-12T21:14:10.575Z,21.15
2022-08-12T21:16:42.165Z,21.12
2022-08-12T21:19:22.647Z,21.11
2022-08-12T21:21:51.879Z,21.09
2022-08-12T21:24:31.701Z,21.02
2022-08-12T21:26:56.786Z,21.00
2022-08-12T21:29:25.583Z,20.81
2022-08-12T21:32:39.410Z,20.89
2022-08-12T21:34:29.678Z,20.88
2022-08-12T21:36:59.463Z,20.43
2022-08-12T21:40:37.702Z,20.86
2022-08-12T21:59:07.223Z,21.02
2022-08-12T22:05:16.843Z,20.86
2022-08-12T22:07:55.462Z,20.91
2022-08-12T22:11:24.563Z,20.86
2022-08-12T22:16:31.103Z,20.95
2022-08-12T22:19:28.308Z,20.98
2022-08-12T22:22:01.250Z,20.91
2022-08-12T22:24:58.565Z,20.89
2022-08-12T22:28:04.946Z,20.90
2022-08-12T23:06:55.912Z,20.97
2022-08-12T23:09:48.988Z,20.92
2022-08-12T23:30:19.137Z,20.98
2022-08-12T23:42:21.302Z,20.84
